Time;durP1;ratioP1;P1;durP2;ratioP2;P2;SDS_P1;SDS_P2;PMS_P1;PMS_P2;Temp;Humidity;BMP_temperature;BMP_pressure;BME280_temperature;BME280_humidity;BME280_pressure;Samples;Min_cycle;Max_cycle;Signal;HPM_P1;HPM_P2
2024/01/22 00:02:12;;;;;;;24.57;22.07;;;1.20;1.00;;;;;;5003830;28;20189;-39
2024/01/22 00:04:38;;;;;;;24.17;21.97;;;1.20;1.00;;;;;;5022869;28;20211;-38
2024/01/22 00:07:04;;;;;;;23.70;21.23;;;1.20;1.00;;;;;;5023426;28;20631;-38
2024/01/22 00:09:29;;;;;;;21.93;19.73;;;1.30;1.00;;;;;;5022612;28;20214;-38
2024/01/22 00:11:55;;;;;;;23.20;20.70;;;1.30;1.00;;;;;;5022966;28;20422;-38
2024/01/22 00:14:20;;;;;;;22.90;20.53;;;1.30;1.00;;;;;;5023007;28;20192;-38
2024/01/22 00:16:46;;;;;;;23.83;21.67;;;1.30;1.00;;;;;;5023438;28;21305;-39
2024/01/22 00:19:12;;;;;;;21.90;19.77;;;1.30;1.00;;;;;;5022869;28;20303;-39
2024/01/22 00:21:43;;;;;;;22.23;20.13;;;1.40;1.00;;;;;;5005046;28;20188;-40
2024/01/22 00:24:09;;;;;;;23.00;21.05;;;1.40;1.00;;;;;;5023242;28;20192;-39
2024/01/22 00:26:35;;;;;;;25.10;22.60;;;1.40;1.00;;;;;;5023493;28;20256;-39
2024/01/22 00:29:01;;;;;;;24.03;21.67;;;1.40;1.00;;;;;;5023380;28;20214;-38
2024/01/22 00:31:26;;;;;;;23.23;21.10;;;1.40;1.00;;;;;;5005088;28;20434;-39
2024/01/22 00:33:52;;;;;;;22.47;20.23;;;1.30;1.00;;;;;;5022739;28;20278;-39
2024/01/22 00:36:17;;;;;;;23.07;20.67;;;1.40;1.00;;;;;;5004377;28;20208;-39
2024/01/22 00:38:43;;;;;;;23.77;21.63;;;1.40;1.00;;;;;;5022886;28;20242;-39
2024/01/22 00:41:09;;;;;;;24.47;22.03;;;1.40;1.00;;;;;;5023070;28;20529;-39
2024/01/22 00:43:36;;;;;;;22.80;20.63;;;1.40;1.00;;;;;;5022543;28;20192;-39
2024/01/22 00:46:02;;;;;;;22.27;20.17;;;1.50;1.00;;;;;;5022767;28;20428;-39
2024/01/22 00:48:28;;;;;;;24.17;20.70;;;1.40;1.00;;;;;;5022690;28;20617;-40
2024/01/22 00:50:53;;;;;;;23.43;21.03;;;1.40;1.00;;;;;;5022354;28;20934;-39
2024/01/22 00:53:19;;;;;;;22.47;20.40;;;1.40;1.00;;;;;;5022322;28;20506;-40
2024/01/22 00:55:45;;;;;;;23.13;20.93;;;1.50;1.00;;;;;;5022532;28;20272;-39
2024/01/22 00:58:10;;;;;;;23.77;21.57;;;1.50;1.00;;;;;;5022720;28;20756;-38
2024/01/22 01:00:36;;;;;;;21.87;19.83;;;1.50;1.00;;;;;;5022750;28;20577;-39
2024/01/22 01:03:02;;;;;;;21.80;19.80;;;1.50;1.00;;;;;;5022506;28;20231;-39
2024/01/22 01:05:28;;;;;;;22.93;20.83;;;1.50;1.00;;;;;;5021934;28;20183;-39
2024/01/22 01:07:53;;;;;;;22.73;20.37;;;1.50;1.00;;;;;;5022310;28;21112;-39
2024/01/22 01:10:19;;;;;;;21.43;19.40;;;1.60;1.00;;;;;;5022282;28;20320;-39
2024/01/22 01:12:44;;;;;;;24.13;21.90;;;1.50;1.00;;;;;;5021646;28;20188;-40
2024/01/22 01:15:10;;;;;;;22.87;20.80;;;1.50;1.00;;;;;;5021669;28;20189;-40
2024/01/22 01:17:37;;;;;;;21.70;19.70;;;1.60;1.00;;;;;;5022105;28;20181;-39
2024/01/22 01:20:06;;;;;;;23.65;21.25;;;1.60;1.00;;;;;;5021874;28;20516;-39
2024/01/22 01:22:32;;;;;;;23.25;20.95;;;1.60;1.00;;;;;;5003559;28;20286;-38
2024/01/22 01:24:57;;;;;;;22.70;20.50;;;1.60;1.00;;;;;;5022014;28;20537;-40
2024/01/22 01:27:23;;;;;;;21.70;19.60;;;1.60;1.00;;;;;;5021719;28;21139;-39
2024/01/22 01:29:49;;;;;;;22.17;20.17;;;1.60;1.00;;;;;;5022086;28;20971;-39
2024/01/22 01:32:14;;;;;;;22.87;20.80;;;1.60;1.00;;;;;;5021860;28;20200;-39
2024/01/22 01:34:40;;;;;;;22.97;20.77;;;1.60;1.00;;;;;;5021833;28;20586;-38
2024/01/22 01:37:06;;;;;;;22.40;20.30;;;1.60;1.00;;;;;;5021404;28;20192;-39
2024/01/22 01:39:31;;;;;;;22.43;20.20;;;1.60;1.00;;;;;;5021230;28;20266;-39
2024/01/22 01:41:57;;;;;;;22.90;20.70;;;1.60;1.00;;;;;;5021557;28;20275;-40
2024/01/22 01:44:52;;;;;;;22.47;20.40;;;1.60;1.00;;;;;;5021069;28;20205;-39
2024/01/22 01:47:19;;;;;;;22.45;20.15;;;1.60;1.00;;;;;;5000659;28;20205;-39
2024/01/22 01:49:46;;;;;;;22.63;20.33;;;1.50;1.00;;;;;;5021757;28;20298;-39
2024/01/22 01:52:13;;;;;;;21.42;19.63;;;1.60;1.00;;;;;;5021623;28;20202;-39
2024/01/22 01:54:40;;;;;;;22.00;20.00;;;1.60;1.00;;;;;;5020750;28;20297;-39
2024/01/22 01:57:06;;;;;;;22.73;20.63;;;1.50;1.00;;;;;;5021326;28;20274;-42
2024/01/22 01:59:38;;;;;;;21.95;19.77;;;1.60;1.00;;;;;;5021196;28;20200;-38
2024/01/22 02:02:03;;;;;;;22.02;19.85;;;1.60;1.00;;;;;;5021220;28;20202;-40
2024/01/22 02:04:30;;;;;;;21.23;19.40;;;1.50;1.00;;;;;;5021450;28;20196;-39
2024/01/22 02:06:56;;;;;;;21.40;18.67;;;1.50;1.00;;;;;;5019001;28;20478;-39
2024/01/22 02:09:21;;;;;;;21.43;19.13;;;1.60;1.00;;;;;;5019379;28;20334;-40
2024/01/22 02:11:47;;;;;;;21.40;19.40;;;1.60;1.00;;;;;;5020164;28;20497;-39
2024/01/22 02:14:12;;;;;;;19.87;18.10;;;1.60;1.00;;;;;;5021119;28;20268;-39
2024/01/22 02:16:38;;;;;;;22.00;20.00;;;1.70;1.00;;;;;;5020721;28;20805;-42
2024/01/22 02:19:04;;;;;;;20.30;18.50;;;1.70;1.00;;;;;;5020788;28;20252;-38
2024/01/22 02:21:29;;;;;;;19.80;18.07;;;1.70;1.00;;;;;;5020833;28;20428;-39
2024/01/22 02:23:55;;;;;;;19.50;17.90;;;1.80;1.00;;;;;;5020177;28;20210;-39
2024/01/22 02:26:21;;;;;;;20.70;18.90;;;1.90;1.00;;;;;;5020602;28;20853;-39
2024/01/22 02:28:46;;;;;;;20.47;18.40;;;1.90;1.00;;;;;;5018651;28;20188;-39
2024/01/22 02:31:12;;;;;;;21.03;19.00;;;2.00;1.00;;;;;;5019878;28;20190;-39
2024/01/22 02:33:37;;;;;;;20.23;18.27;;;2.00;1.00;;;;;;5020316;28;20212;-39
2024/01/22 02:36:04;;;;;;;21.30;19.30;;;2.00;1.00;;;;;;5020180;28;20667;-39
2024/01/22 02:38:30;;;;;;;19.75;17.80;;;2.10;1.00;;;;;;5020718;28;20185;-40
2024/01/22 02:40:55;;;;;;;20.07;18.47;;;2.20;1.00;;;;;;5020370;28;20663;-39
2024/01/22 02:43:21;;;;;;;19.90;18.00;;;2.10;1.00;;;;;;5002741;28;20272;-39
2024/01/22 02:45:48;;;;;;;21.37;19.37;;;2.20;1.00;;;;;;5020271;28;20189;-39
2024/01/22 02:48:13;;;;;;;21.70;19.60;;;2.10;1.00;;;;;;5020537;28;20182;-39
2024/01/22 02:50:39;;;;;;;21.23;19.33;;;2.20;1.00;;;;;;5020527;28;20262;-38
2024/01/22 02:53:05;;;;;;;22.43;20.33;;;2.20;1.00;;;;;;5020272;28;20184;-39
2024/01/22 02:55:30;;;;;;;20.50;18.80;;;2.20;1.00;;;;;;5020232;28;20190;-39
2024/01/22 02:57:56;;;;;;;20.97;19.07;;;2.20;1.00;;;;;;5019666;28;20639;-39
2024/01/22 03:00:21;;;;;;;19.70;18.13;;;2.20;1.00;;;;;;5020196;28;20214;-39
2024/01/22 03:02:47;;;;;;;21.47;19.30;;;2.30;1.00;;;;;;5020432;28;20219;-38
2024/01/22 03:05:13;;;;;;;22.00;19.80;;;2.20;1.00;;;;;;5020382;28;20193;-40
2024/01/22 03:07:38;;;;;;;22.77;20.27;;;2.20;1.00;;;;;;5020552;28;20643;-40
2024/01/22 03:10:04;;;;;;;20.20;18.20;;;2.10;1.00;;;;;;5019845;28;20217;-39
2024/01/22 03:12:30;;;;;;;20.23;18.43;;;2.20;1.00;;;;;;5021021;28;20186;-39
2024/01/22 03:14:55;;;;;;;22.10;20.03;;;2.20;1.00;;;;;;5019558;28;20573;-38
2024/01/22 03:17:21;;;;;;;22.60;20.40;;;2.20;1.00;;;;;;5020123;28;20197;-40
2024/01/22 03:19:46;;;;;;;21.93;19.70;;;2.20;1.00;;;;;;5020153;28;20624;-40
2024/01/22 03:22:12;;;;;;;21.93;19.90;;;2.20;1.00;;;;;;5019849;28;20255;-53
2024/01/22 03:24:37;;;;;;;22.00;19.90;;;2.20;1.00;;;;;;5020360;28;20190;-52
2024/01/22 03:27:03;;;;;;;21.50;19.60;;;2.20;1.00;;;;;;5020447;28;20190;-57
2024/01/22 03:29:30;;;;;;;22.75;20.45;;;2.10;1.00;;;;;;5019365;28;20260;-57
2024/01/22 03:31:56;;;;;;;20.17;18.40;;;2.10;1.00;;;;;;5019772;28;20339;-55
2024/01/22 03:34:22;;;;;;;20.43;18.63;;;2.10;1.00;;;;;;5020126;28;20842;-55
2024/01/22 03:36:47;;;;;;;21.77;19.98;;;2.10;1.00;;;;;;5020479;28;20193;-48
2024/01/22 03:39:13;;;;;;;21.80;19.70;;;2.10;1.00;;;;;;5023822;28;20964;-56
2024/01/22 03:41:38;;;;;;;20.97;19.07;;;2.10;1.00;;;;;;5006016;28;20213;-56
2024/01/22 03:44:05;;;;;;;21.40;19.40;;;2.10;1.00;;;;;;5005747;28;20197;-56
2024/01/22 03:46:30;;;;;;;20.80;18.90;;;2.10;1.00;;;;;;5023831;28;20296;-55
2024/01/22 03:48:56;;;;;;;20.60;18.70;;;2.10;1.00;;;;;;5023596;28;20290;-55
2024/01/22 03:51:21;;;;;;;20.37;18.47;;;2.20;1.00;;;;;;5023317;28;20239;-58
2024/01/22 03:53:47;;;;;;;21.60;19.47;;;2.30;1.00;;;;;;5023992;28;20181;-54
2024/01/22 03:56:13;;;;;;;20.83;18.80;;;2.20;1.00;;;;;;5023817;28;20188;-39
2024/01/22 03:58:38;;;;;;;20.27;18.43;;;2.20;1.00;;;;;;5023436;28;20189;-38
2024/01/22 04:01:04;;;;;;;20.77;18.80;;;2.20;1.00;;;;;;5023534;28;20653;-39
2024/01/22 04:03:33;;;;;;;19.80;18.00;;;2.20;1.00;;;;;;5023590;28;20607;-39
2024/01/22 04:05:59;;;;;;;20.88;19.08;;;2.30;1.00;;;;;;5023292;28;20193;-46
2024/01/22 04:08:25;;;;;;;20.40;18.37;;;2.20;1.00;;;;;;5023324;28;20254;-57
2024/01/22 04:10:50;;;;;;;21.10;19.10;;;2.30;1.00;;;;;;5022429;28;20259;-57
2024/01/22 04:13:16;;;;;;;20.27;18.57;;;2.30;1.00;;;;;;5023428;28;20197;-56
2024/01/22 04:15:41;;;;;;;20.20;18.47;;;2.30;1.00;;;;;;5023214;28;20194;-48
2024/01/22 04:18:07;;;;;;;22.57;19.70;;;2.30;1.00;;;;;;5005771;28;20568;-38
2024/01/22 04:20:33;;;;;;;21.07;19.17;;;2.30;1.00;;;;;;5015839;28;20235;-39
2024/01/22 04:22:58;;;;;;;20.87;18.87;;;2.30;1.00;;;;;;5017938;28;20239;-39
2024/01/22 04:25:24;;;;;;;20.70;18.57;;;2.30;1.00;;;;;;5006049;28;20825;-39
2024/01/22 04:27:49;;;;;;;21.87;19.60;;;2.30;1.00;;;;;;5012628;28;20199;-38
2024/01/22 04:30:15;;;;;;;20.43;18.63;;;2.30;1.00;;;;;;5001233;28;20328;-44
2024/01/22 04:32:40;;;;;;;20.67;18.63;;;2.30;1.00;;;;;;5014955;28;20196;-38
2024/01/22 04:35:07;;;;;;;20.83;18.83;;;2.30;1.00;;;;;;5014009;28;20185;-39
2024/01/22 04:37:33;;;;;;;20.98;18.95;;;2.30;1.00;;;;;;5013790;28;20186;-38
2024/01/22 04:40:09;;;;;;;21.10;19.00;;;2.30;1.00;;;;;;5007792;28;20195;-38
2024/01/22 04:42:34;;;;;;;18.98;17.33;;;2.30;1.00;;;;;;5012383;28;20185;-38
2024/01/22 04:45:00;;;;;;;20.33;18.50;;;2.40;1.00;;;;;;5006856;28;20545;-41
2024/01/22 04:47:26;;;;;;;19.73;17.90;;;2.40;1.00;;;;;;5017695;28;20186;-38
2024/01/22 04:49:51;;;;;;;19.93;18.10;;;2.40;1.00;;;;;;5002728;28;20216;-38
2024/01/22 04:52:17;;;;;;;19.20;17.50;;;2.40;1.00;;;;;;5013192;28;20186;-39
2024/01/22 04:54:42;;;;;;;18.83;17.40;;;2.40;1.00;;;;;;5013624;28;20526;-45
2024/01/22 04:57:08;;;;;;;20.97;18.97;;;2.40;1.00;;;;;;5007839;28;20190;-38
2024/01/22 04:59:33;;;;;;;18.30;16.70;;;2.40;1.00;;;;;;5007118;28;20193;-55
2024/01/22 05:01:59;;;;;;;20.67;18.80;;;2.40;1.00;;;;;;5010008;28;20269;-56
2024/01/22 05:04:25;;;;;;;19.30;17.60;;;2.50;1.00;;;;;;5013386;28;20189;-54
2024/01/22 05:06:50;;;;;;;20.47;18.27;;;2.50;1.00;;;;;;5005146;28;20600;-39
2024/01/22 05:09:16;;;;;;;19.93;18.23;;;2.40;1.00;;;;;;5004418;28;20210;-38
2024/01/22 05:11:41;;;;;;;18.67;17.03;;;2.40;1.00;;;;;;5010454;28;20180;-38
2024/01/22 05:14:07;;;;;;;18.93;17.23;;;2.50;1.00;;;;;;5003742;28;20236;-38
2024/01/22 05:16:33;;;;;;;18.30;16.70;;;2.50;1.00;;;;;;5012747;28;20529;-43
2024/01/22 05:18:59;;;;;;;19.63;17.40;;;2.50;1.00;;;;;;5013120;28;20221;-40
2024/01/22 05:21:24;;;;;;;19.67;17.90;;;2.60;1.00;;;;;;5022341;28;20480;-38
2024/01/22 05:23:50;;;;;;;18.33;16.60;;;2.50;1.00;;;;;;5021129;28;20189;-38
2024/01/22 05:26:15;;;;;;;18.90;17.33;;;2.60;1.00;;;;;;5021792;28;20180;-38
2024/01/22 05:28:41;;;;;;;18.60;17.03;;;2.60;1.00;;;;;;5020547;28;20292;-39
2024/01/22 05:31:07;;;;;;;20.10;18.20;;;2.60;1.00;;;;;;5021205;28;20244;-38
2024/01/22 05:33:32;;;;;;;20.93;18.93;;;2.70;1.00;;;;;;5003709;28;20258;-38
2024/01/22 05:35:59;;;;;;;20.30;18.40;;;2.70;1.00;;;;;;5021694;28;20201;-38
2024/01/22 05:38:25;;;;;;;19.30;17.33;;;2.80;1.00;;;;;;5021588;28;20185;-41
2024/01/22 05:40:50;;;;;;;19.87;18.00;;;2.80;1.00;;;;;;5021575;28;21380;-55
2024/01/22 05:43:16;;;;;;;17.43;15.87;;;2.80;1.00;;;;;;5021614;28;20182;-56
2024/01/22 05:45:42;;;;;;;19.17;17.33;;;2.80;1.00;;;;;;5021636;28;20272;-55
2024/01/22 05:48:09;;;;;;;20.85;18.75;;;2.90;1.00;;;;;;5021457;28;20204;-39
2024/01/22 05:50:35;;;;;;;19.27;17.50;;;2.80;1.00;;;;;;5021199;28;20243;-39
2024/01/22 05:53:00;;;;;;;19.90;17.97;;;2.80;1.00;;;;;;5022038;28;20288;-38
2024/01/22 05:55:28;;;;;;;20.00;18.10;;;2.90;1.00;;;;;;5021599;28;20193;-39
2024/01/22 05:57:54;;;;;;;18.80;17.17;;;2.90;1.00;;;;;;5003592;28;20309;-38
2024/01/22 06:00:20;;;;;;;20.35;18.67;;;2.90;1.00;;;;;;5017624;28;20206;-39
2024/01/22 06:02:45;;;;;;;19.70;17.70;;;2.80;1.00;;;;;;5019972;28;20197;-39
2024/01/22 06:05:12;;;;;;;19.70;17.80;;;2.80;1.00;;;;;;5021495;28;20423;-38
2024/01/22 06:07:38;;;;;;;19.58;17.85;;;2.80;1.00;;;;;;5021257;28;20208;-39
2024/01/22 06:10:05;;;;;;;20.38;18.50;;;2.80;1.00;;;;;;5021186;28;20202;-39
2024/01/22 06:12:32;;;;;;;20.35;18.65;;;2.90;1.00;;;;;;5021415;28;20185;-39
2024/01/22 06:14:57;;;;;;;19.38;17.63;;;2.80;1.00;;;;;;5020581;28;20728;-39
2024/01/22 06:17:24;;;;;;;18.50;17.00;;;2.80;1.00;;;;;;5021210;28;20265;-38
2024/01/22 06:19:49;;;;;;;18.52;16.90;;;2.80;1.00;;;;;;5021185;28;20224;-39
2024/01/22 06:22:17;;;;;;;19.73;18.00;;;2.90;1.00;;;;;;5021028;28;20248;-39
2024/01/22 06:24:44;;;;;;;19.55;17.70;;;2.90;1.00;;;;;;5020276;28;20427;-39
2024/01/22 06:27:09;;;;;;;17.40;15.98;;;2.90;1.00;;;;;;5021702;28;20212;-39
2024/01/22 06:29:35;;;;;;;19.20;17.37;;;3.00;1.00;;;;;;5020216;28;20206;-38
2024/01/22 06:32:01;;;;;;;19.47;17.70;;;3.00;1.00;;;;;;5020942;28;20533;-42
2024/01/22 06:34:27;;;;;;;18.92;17.02;;;3.10;1.00;;;;;;5021125;28;20637;-39
2024/01/22 06:36:53;;;;;;;18.30;16.70;;;3.10;1.00;;;;;;5021257;28;20186;-40
2024/01/22 06:39:18;;;;;;;18.90;17.20;;;3.10;1.00;;;;;;5020964;28;20982;-40
2024/01/22 06:41:44;;;;;;;17.93;16.13;;;3.20;1.00;;;;;;5020522;28;20177;-39
2024/01/22 06:44:09;;;;;;;18.27;16.67;;;3.30;1.00;;;;;;5018461;28;20221;-37
2024/01/22 06:46:35;;;;;;;18.40;16.47;;;3.30;1.00;;;;;;5020255;28;20196;-39
2024/01/22 06:49:00;;;;;;;19.97;18.20;;;3.40;1.00;;;;;;5019903;28;20189;-38
2024/01/22 06:51:28;;;;;;;19.57;17.80;;;3.40;1.00;;;;;;5019973;28;20178;-38
2024/01/22 06:53:54;;;;;;;18.05;16.52;;;3.50;1.00;;;;;;5020513;28;20178;-39
2024/01/22 06:56:19;;;;;;;19.23;17.63;;;3.60;1.00;;;;;;5020662;28;20178;-39
2024/01/22 06:58:45;;;;;;;18.30;16.80;;;3.60;1.00;;;;;;5020280;28;20194;-40
2024/01/22 07:01:10;;;;;;;17.97;16.57;;;3.70;1.00;;;;;;5018420;28;20186;-39
2024/01/22 07:03:36;;;;;;;17.53;16.13;;;3.70;1.00;;;;;;5019072;28;20224;-56
2024/01/22 07:06:03;;;;;;;16.40;15.10;;;3.80;1.00;;;;;;5019571;28;20195;-56
2024/01/22 07:08:28;;;;;;;18.33;16.73;;;3.90;1.00;;;;;;5020078;28;21002;-53
2024/01/22 07:10:54;;;;;;;17.63;16.23;;;3.90;1.00;;;;;;5016781;28;20217;-54
2024/01/22 07:13:19;;;;;;;17.13;15.77;;;4.00;1.00;;;;;;5022991;28;20487;-56
2024/01/22 07:15:45;;;;;;;18.43;16.80;;;4.10;1.00;;;;;;5023018;28;20178;-55
2024/01/22 07:18:11;;;;;;;17.33;15.93;;;4.10;1.00;;;;;;5023799;28;20980;-57
2024/01/22 07:20:36;;;;;;;17.40;16.00;;;4.20;1.00;;;;;;5022189;28;20336;-56
2024/01/22 07:23:02;;;;;;;17.63;16.13;;;4.20;1.00;;;;;;5018473;28;20182;-53
2024/01/22 07:25:29;;;;;;;18.17;16.67;;;4.30;1.00;;;;;;5015481;28;20648;-53
2024/01/22 07:27:55;;;;;;;17.20;15.90;;;4.30;1.00;;;;;;5010006;28;20265;-56
2024/01/22 07:30:21;;;;;;;17.67;16.07;;;4.40;1.00;;;;;;5019536;28;21041;-56
2024/01/22 07:32:47;;;;;;;17.97;16.50;;;4.40;1.00;;;;;;5019681;28;20197;-55
2024/01/22 07:35:13;;;;;;;16.38;15.07;;;4.50;1.00;;;;;;5022716;28;20911;-52
2024/01/22 07:37:44;;;;;;;17.13;15.93;;;4.60;1.00;;;;;;5021138;28;20276;-55
2024/01/22 07:40:11;;;;;;;17.27;15.80;;;4.60;1.00;;;;;;5022242;28;20245;-54
2024/01/22 07:42:38;;;;;;;16.85;15.55;;;4.70;1.00;;;;;;5019719;28;20237;-56
2024/01/22 07:45:05;;;;;;;16.90;15.80;;;4.80;1.00;;;;;;5021491;28;20600;-54
2024/01/22 07:47:34;;;;;;;16.17;14.98;;;4.90;1.00;;;;;;5006596;28;20183;-55
2024/01/22 07:50:00;;;;;;;16.02;14.68;;;5.00;1.00;;;;;;5020057;28;20198;-39
2024/01/22 07:52:26;;;;;;;17.20;15.80;;;5.00;1.00;;;;;;5019436;28;20197;-39
2024/01/22 07:54:52;;;;;;;17.30;16.00;;;5.10;1.00;;;;;;5017893;28;20187;-40
2024/01/22 07:57:18;;;;;;;16.38;15.18;;;5.20;1.00;;;;;;5013325;28;20189;-39
2024/01/22 07:59:44;;;;;;;15.23;14.00;;;5.30;1.00;;;;;;5009464;28;20547;-41
2024/01/22 08:02:10;;;;;;;15.50;14.40;;;5.30;1.00;;;;;;5023024;28;20190;-39
2024/01/22 08:04:36;;;;;;;16.65;15.25;;;5.40;1.00;;;;;;5023253;28;20653;-39
2024/01/22 08:07:03;;;;;;;15.82;14.63;;;5.50;1.00;;;;;;5008212;28;20183;-39
2024/01/22 08:09:32;;;;;;;15.48;14.38;;;5.50;1.00;;;;;;4995462;28;20276;-39
2024/01/22 08:11:58;;;;;;;15.55;14.38;;;5.60;1.00;;;;;;5020073;28;20189;-39
2024/01/22 08:14:24;;;;;;;15.47;14.40;;;5.60;1.00;;;;;;5022744;28;20190;-39
2024/01/22 08:16:49;;;;;;;14.87;13.83;;;5.60;1.00;;;;;;5019062;28;20179;-41
2024/01/22 08:19:16;;;;;;;16.37;15.07;;;5.70;1.00;;;;;;5015713;28;20225;-39
2024/01/22 08:21:41;;;;;;;15.60;14.40;;;5.70;1.00;;;;;;5020643;28;20189;-39
2024/01/22 08:24:07;;;;;;;13.93;13.03;;;5.80;1.00;;;;;;5006950;28;20218;-39
2024/01/22 08:26:32;;;;;;;15.30;14.20;;;5.90;1.00;;;;;;5018272;28;20758;-39
2024/01/22 08:28:58;;;;;;;15.60;14.53;;;5.90;1.00;;;;;;5012571;28;20187;-40
2024/01/22 08:31:23;;;;;;;14.50;13.40;;;5.90;1.00;;;;;;5008287;28;20222;-39
2024/01/22 08:33:50;;;;;;;13.80;12.80;;;6.00;1.00;;;;;;5020776;28;20258;-40
2024/01/22 08:36:16;;;;;;;14.20;13.20;;;6.10;1.00;;;;;;5021343;28;20183;-39
2024/01/22 08:38:42;;;;;;;14.43;13.33;;;6.20;1.00;;;;;;5013278;28;20405;-40
2024/01/22 08:41:10;;;;;;;14.47;13.37;;;6.20;1.00;;;;;;4991043;28;20491;-41
2024/01/22 08:43:36;;;;;;;14.77;13.65;;;6.20;1.00;;;;;;5012582;28;20441;-39
2024/01/22 08:46:02;;;;;;;15.13;14.03;;;6.20;1.00;;;;;;5021271;28;20190;-39
2024/01/22 08:48:28;;;;;;;13.80;12.90;;;6.20;1.00;;;;;;5011669;28;20191;-39
2024/01/22 08:50:53;;;;;;;15.17;14.17;;;6.20;1.00;;;;;;5015165;28;20461;-39
2024/01/22 08:53:19;;;;;;;13.73;12.83;;;6.10;1.00;;;;;;5019885;28;20183;-40
2024/01/22 08:55:44;;;;;;;15.00;13.93;;;6.00;1.00;;;;;;5016568;28;20194;-39
2024/01/22 08:58:10;;;;;;;15.17;14.07;;;6.00;1.00;;;;;;5015338;28;20621;-40
2024/01/22 09:00:36;;;;;;;15.30;14.20;;;5.90;1.00;;;;;;5011577;28;20278;-39
2024/01/22 09:03:02;;;;;;;15.23;13.93;;;6.00;1.00;;;;;;5020665;28;20182;-39
2024/01/22 09:05:28;;;;;;;13.80;12.90;;;6.00;1.00;;;;;;5016678;28;20424;-38
2024/01/22 09:07:53;;;;;;;15.15;14.00;;;6.00;1.00;;;;;;5014309;28;20266;-39
2024/01/22 09:10:19;;;;;;;15.07;13.97;;;5.90;1.00;;;;;;5005646;28;20908;-39
2024/01/22 09:12:48;;;;;;;15.10;14.00;;;5.80;1.00;;;;;;4985988;28;20265;-39
2024/01/22 09:15:23;;;;;;;15.68;14.38;;;5.80;1.00;;;;;;5014833;28;20536;-39
2024/01/22 09:17:49;;;;;;;15.52;14.52;;;5.80;1.00;;;;;;5016845;28;20824;-57
2024/01/22 09:20:15;;;;;;;16.03;14.90;;;5.80;1.00;;;;;;5011738;28;20294;-57
2024/01/22 09:22:41;;;;;;;15.10;14.10;;;5.80;1.00;;;;;;5026908;28;20182;-59
2024/01/22 09:25:08;;;;;;;16.20;14.80;;;5.70;1.00;;;;;;5028186;28;20549;-39
2024/01/22 09:27:34;;;;;;;14.68;13.68;;;5.70;1.00;;;;;;5033614;28;20259;-39
2024/01/22 09:30:00;;;;;;;14.90;13.90;;;5.60;1.00;;;;;;5034048;28;20237;-39
2024/01/22 09:32:25;;;;;;;16.23;15.03;;;5.60;1.00;;;;;;5023214;28;20690;-39
2024/01/22 09:34:51;;;;;;;15.13;13.97;;;5.60;1.00;;;;;;5036188;28;20178;-40
2024/01/22 09:37:17;;;;;;;15.75;14.65;;;5.50;1.00;;;;;;5035857;28;20586;-41
2024/01/22 09:39:44;;;;;;;14.20;13.30;;;5.60;1.00;;;;;;5039111;28;20178;-40
2024/01/22 09:42:14;;;;;;;15.38;14.20;;;5.60;1.00;;;;;;5035719;28;20182;-40
2024/01/22 09:44:40;;;;;;;15.55;14.55;;;5.60;1.00;;;;;;5036910;28;20178;-42
2024/01/22 09:47:08;;;;;;;15.25;14.25;;;5.70;1.00;;;;;;5028258;28;20684;-40
2024/01/22 09:49:34;;;;;;;14.40;13.50;;;5.70;1.00;;;;;;5034967;28;20197;-42
2024/01/22 09:52:02;;;;;;;14.80;13.90;;;5.70;1.00;;;;;;5040623;28;20185;-39
2024/01/22 09:54:29;;;;;;;15.02;14.13;;;5.70;1.00;;;;;;5032966;28;20448;-41
2024/01/22 09:56:55;;;;;;;14.68;13.68;;;5.70;1.00;;;;;;5036778;28;20201;-39
2024/01/22 09:59:24;;;;;;;15.02;14.13;;;5.60;1.00;;;;;;5026160;28;20257;-39
2024/01/22 10:01:52;;;;;;;14.77;13.88;;;5.50;1.00;;;;;;5034257;28;20256;-40
2024/01/22 10:04:18;;;;;;;14.25;13.35;;;5.40;1.00;;;;;;5023850;28;20256;-40
2024/01/22 10:06:46;;;;;;;15.48;14.52;;;5.30;1.00;;;;;;5033797;28;20183;-39
2024/01/22 10:09:15;;;;;;;15.32;14.23;;;5.30;1.00;;;;;;5010677;28;20182;-39
2024/01/22 10:11:50;;;;;;;14.90;13.90;;;5.20;1.00;;;;;;5012997;28;20205;-39
2024/01/22 10:14:16;;;;;;;16.00;15.00;;;5.20;1.00;;;;;;5036609;28;20177;-39
2024/01/22 10:16:41;;;;;;;14.47;13.57;;;5.10;44.10;;;;;;5028182;28;20844;-40
2024/01/22 10:19:09;;;;;;;15.60;14.37;;;5.10;71.60;;;;;;5021094;28;20222;-40
2024/01/22 10:21:35;;;;;;;16.45;14.95;;;5.10;78.80;;;;;;5016361;28;20225;-39
2024/01/22 10:24:02;;;;;;;15.98;14.68;;;5.10;1.00;;;;;;5007569;28;20660;-39
2024/01/22 10:26:30;;;;;;;15.63;14.68;;;5.20;1.00;;;;;;5017145;28;20228;-39
2024/01/22 10:29:16;;;;;;;15.50;14.27;;;5.10;1.00;;;;;;5009084;28;20896;-56
2024/01/22 10:31:59;;;;;;;16.00;14.90;;;5.20;1.00;;;;;;5019211;28;20530;-44
2024/01/22 10:34:28;;;;;;;15.90;14.60;;;5.20;1.00;;;;;;5005007;28;20190;-56
2024/01/22 10:37:23;;;;;;;16.20;15.10;;;5.30;1.00;;;;;;5018240;28;20174;-53
2024/01/22 10:40:00;;;;;;;15.45;14.15;;;5.30;1.00;;;;;;4997949;28;20199;-53
2024/01/22 10:42:26;;;;;;;15.93;14.75;;;5.40;1.00;;;;;;4996172;28;20206;-57
2024/01/22 10:44:53;;;;;;;15.48;14.18;;;5.50;1.00;;;;;;5016119;28;20747;-55
2024/01/22 10:47:19;;;;;;;13.13;12.02;;;5.60;1.00;;;;;;5007497;28;20178;-56
2024/01/22 10:49:46;;;;;;;14.27;13.32;;;5.60;1.00;;;;;;5010777;28;20602;-56
2024/01/22 10:52:13;;;;;;;14.10;13.00;;;5.60;1.00;;;;;;5001345;28;20207;-55
2024/01/22 10:54:39;;;;;;;14.13;13.02;;;5.70;1.00;;;;;;4990351;28;20186;-57
2024/01/22 10:57:14;;;;;;;14.10;13.10;;;5.80;1.00;;;;;;5017067;28;20191;-57
2024/01/22 10:59:42;;;;;;;14.15;13.20;;;5.80;1.00;;;;;;5001394;28;20218;-53
2024/01/22 11:02:16;;;;;;;14.10;13.10;;;5.90;1.00;;;;;;5011309;28;20182;-57
2024/01/22 11:04:46;;;;;;;15.25;14.13;;;6.00;1.00;;;;;;5016440;28;20186;-55
2024/01/22 11:07:12;;;;;;;14.68;13.68;;;6.00;1.00;;;;;;5012810;28;20673;-58
2024/01/22 11:09:39;;;;;;;14.53;13.43;;;6.00;1.00;;;;;;4987247;28;20203;-56
2024/01/22 11:12:17;;;;;;;14.30;13.30;;;6.00;1.00;;;;;;5005774;28;20532;-56
2024/01/22 11:14:42;;;;;;;14.85;13.75;;;5.90;1.00;;;;;;5001092;28;20665;-57
2024/01/22 11:17:09;;;;;;;15.03;14.03;;;5.90;1.00;;;;;;5001075;28;20189;-57
2024/01/22 11:19:36;;;;;;;15.23;14.13;;;5.90;1.00;;;;;;5007122;28;20241;-45
2024/01/22 11:22:20;;;;;;;16.73;15.32;;;5.90;1.00;;;;;;5001252;28;20183;-40
2024/01/22 11:25:00;;;;;;;15.45;14.32;;;5.90;1.00;;;;;;5006848;28;21157;-43
2024/01/22 11:27:40;;;;;;;14.02;13.02;;;5.90;1.00;;;;;;5014935;28;20197;-39
2024/01/22 11:30:21;;;;;;;15.32;14.07;;;6.00;1.00;;;;;;5009523;28;20217;-39
2024/01/22 11:32:47;;;;;;;14.77;13.70;;;6.00;1.00;;;;;;5003469;28;20201;-40
2024/01/22 11:35:30;;;;;;;15.05;13.77;;;6.00;1.00;;;;;;5014812;28;20550;-40
2024/01/22 11:37:56;;;;;;;15.27;14.25;;;6.00;1.00;;;;;;5007223;28;20700;-39
2024/01/22 11:40:47;;;;;;;14.40;13.47;;;6.00;1.00;;;;;;5007753;28;20274;-39
2024/01/22 11:43:15;;;;;;;13.20;12.48;;;6.10;1.00;;;;;;5018916;28;20243;-39
2024/01/22 11:45:40;;;;;;;14.43;13.43;;;6.20;1.00;;;;;;5012179;28;20190;-39
2024/01/22 11:48:20;;;;;;;15.50;14.40;;;6.30;1.00;;;;;;4990709;28;20426;-38
2024/01/22 11:51:04;;;;;;;14.13;13.32;;;6.40;1.00;;;;;;5009147;28;20748;-38
2024/01/22 11:53:31;;;;;;;14.73;13.80;;;6.30;1.00;;;;;;5016333;28;20206;-38
2024/01/22 11:56:06;;;;;;;14.75;13.75;;;6.50;1.00;;;;;;5011321;28;20827;-39
2024/01/22 11:58:33;;;;;;;14.73;13.73;;;6.60;1.00;;;;;;5015611;28;20192;-45
2024/01/22 12:01:09;;;;;;;13.87;12.97;;;6.60;1.00;;;;;;5014832;28;20547;-37
2024/01/22 12:03:35;;;;;;;15.80;14.60;;;6.50;1.00;;;;;;5020269;28;20421;-38
2024/01/22 12:06:02;;;;;;;14.70;13.80;;;6.60;1.00;;;;;;5020917;28;20513;-38
2024/01/22 12:08:28;;;;;;;16.57;15.27;;;6.60;1.00;;;;;;5023373;28;20428;-38
2024/01/22 12:11:06;;;;;;;15.23;14.10;;;6.70;1.00;;;;;;5014607;28;20833;-39
2024/01/22 12:13:32;;;;;;;14.98;13.90;;;6.70;1.00;;;;;;5023163;28;20444;-38
2024/01/22 12:15:58;;;;;;;15.57;14.57;;;6.80;1.00;;;;;;5018389;28;20189;-39
2024/01/22 12:18:25;;;;;;;15.70;14.60;;;6.80;1.00;;;;;;5013075;28;20640;-38
2024/01/22 12:20:51;;;;;;;15.33;14.23;;;6.90;1.00;;;;;;5015776;28;20617;-38
2024/01/22 12:23:30;;;;;;;14.70;13.60;;;7.00;1.00;;;;;;5017584;28;20505;-40
2024/01/22 12:25:57;;;;;;;14.40;13.43;;;7.10;1.00;;;;;;4989732;28;20510;-38
2024/01/22 12:28:23;;;;;;;14.60;13.60;;;7.20;1.00;;;;;;5022054;28;20432;-39
2024/01/22 12:31:01;;;;;;;14.43;13.53;;;7.50;1.00;;;;;;5015213;28;20526;-38
2024/01/22 12:33:28;;;;;;;14.70;13.70;;;7.60;1.00;;;;;;5006748;28;20504;-38
2024/01/22 12:36:11;;;;;;;13.10;12.30;;;7.70;1.00;;;;;;5019754;28;20411;-38
2024/01/22 12:38:53;;;;;;;12.83;12.13;;;7.90;1.00;;;;;;5005401;28;20568;-39
2024/01/22 12:41:21;;;;;;;13.90;12.90;;;8.00;1.00;;;;;;5014608;28;20487;-41
2024/01/22 12:43:46;;;;;;;14.70;13.67;;;8.20;1.00;;;;;;5022655;28;20425;-42
2024/01/22 12:46:19;;;;;;;13.53;12.73;;;8.40;1.00;;;;;;5018597;28;20430;-40